Болодек

Карта отелей и гостиниц, располагающихся рядом с аэропортом Болодек :



Болодек Хабаровский край 53° 41' 35.52" N, 133° 3' 19.5588" E

Болодек Хабаровский край 53° 41' 35.52" N, 133° 3' 19.5588" E
Код аэродрома ИКАО: 
ZEX3
Код аэродрома RU: 
ЗЕЬ3
Координаты: 
N53.69320° E133.05543°
Превышение над уровнем моря : 
265
Основная полоса: 
18/36
Курс магнитный: 
182,8/002,8
Длина основной ВПП: 
421
Ширина основной ВПП: 
30
Покрытие основной ВПП: 
Нетвёрдое (грунт)
Тип: 
Аэродром
Освещение ВПП: 
Нет
Класс аэродрома: 
Статус: 
Недействующий
Принадлежность: 
ГА
Сайт: 
E-mail аэродрома: 
Страна: 
Россия
Регион: 
Хабаровский край
Город: 
Дополнительная информация: 
Оператор: нет данных.

Найти трансфер

С помощью этой формы Вы можете найти трансфер из аэропорта Болодек в город, аэропорт или вокзал:

Карта места

Javascript is required to view this map.

Погода в аэропортах:

Авиационная погода в Чернобаевке

Регион: 
Погода METAR: 
UKOH 210400Z 01003MPS 3400 BR NSC M03/M03 Q1021 R03/CLRD65 NOSIG
Время наблюдения: 
2020-02-21T04:00:00Z
Температура C: 
-3.0
Точка росы: 
-3.0
Направление ветра: 
10
Скорость ветра: 
6
Метеорологическая видимость: 
2.11
Явления погоды: 
BR
Условия полета: 
IFR
Аэропорт подробнее: 

Авиационная погода в Череповце

Регион: 
Погода METAR: 
ULWC 210400Z 00000MPS 2200 -SNRA BR OVC002 00/M00 Q1016 R21/490150 BECMG 3100 BR BKN003 RMK QBB060 QFE752/1003
Время наблюдения: 
2020-02-21T04:00:00Z
Температура C: 
0.0
Точка росы: 
0.0
Направление ветра: 
0
Скорость ветра: 
0
Метеорологическая видимость: 
1.37
Явления погоды: 
-SN -RA BR
Условия полета: 
LIFR
Аэропорт подробнее: 

Авиационная погода в Кишинёве

Регион: 
Погода METAR: 
LUKK 210400Z VRB02KT 3900 BR BKN002 OVC006 04/03 Q1021 R26/D TEMPO 1800 BR OVC001
Время наблюдения: 
2020-02-21T04:00:00Z
Температура C: 
4.0
Точка росы: 
3.0
Направление ветра: 
0
Скорость ветра: 
2
Метеорологическая видимость: 
2.42
Явления погоды: 
BR
Условия полета: 
LIFR

Авиационная погода в Борисполе

Регион: 
Погода METAR: 
UKBB 210400Z 20002MPS 9999 -RA OVC040 02/01 Q1022 R18L/190055 R18R/CLRD// NOSIG
Время наблюдения: 
2020-02-21T04:00:00Z
Температура C: 
2.0
Точка росы: 
1.0
Направление ветра: 
200
Скорость ветра: 
4
Метеорологическая видимость: 
6.21
Явления погоды: 
-RA
Условия полета: 
VFR
Аэропорт подробнее: